Time;durP1;ratioP1;P1;durP2;ratioP2;P2;SDS_P1;SDS_P2;PMS_P1;PMS_P2;Temp;Humidity;BMP_temperature;BMP_pressure;BME280_temperature;BME280_humidity;BME280_pressure;Samples;Min_cycle;Max_cycle;Signal;HPM_P1;HPM_P2
2023/03/14 00:00:08;;;;;;;2.92;1.02;;;11.00;99.90;;;;;;4955013;29;20027;-54
2023/03/14 00:02:34;;;;;;;4.80;1.10;;;11.00;99.90;;;;;;4955270;29;20031;-54
2023/03/14 00:05:02;;;;;;;1.00;0.88;;;11.00;99.90;;;;;;4954760;29;20510;-51
2023/03/14 00:07:31;;;;;;;2.30;1.20;;;11.00;99.90;;;;;;4955161;29;20027;-54
2023/03/14 00:09:57;;;;;;;3.13;1.20;;;11.10;99.90;;;;;;4955051;29;20019;-51
2023/03/14 00:12:22;;;;;;;1.17;0.95;;;11.10;99.90;;;;;;4955016;29;20026;-51
2023/03/14 00:14:48;;;;;;;1.92;0.85;;;11.10;99.90;;;;;;4954424;29;20027;-55
2023/03/14 00:17:13;;;;;;;2.28;1.00;;;11.10;99.90;;;;;;4954600;28;20035;-49
2023/03/14 00:19:39;;;;;;;3.97;1.60;;;11.10;99.90;;;;;;4953955;29;20066;-50
2023/03/14 00:22:04;;;;;;;10.57;6.57;;;11.20;99.90;;;;;;4953994;29;20035;-52
2023/03/14 00:24:30;;;;;;;5.22;2.65;;;11.20;99.90;;;;;;4954166;29;20027;-49
2023/03/14 00:26:55;;;;;;;4.53;2.67;;;11.30;99.90;;;;;;4953452;29;20517;-49
2023/03/14 00:29:20;;;;;;;3.60;1.45;;;11.30;99.90;;;;;;4952685;29;20022;-53
2023/03/14 00:31:46;;;;;;;4.32;1.88;;;11.30;99.90;;;;;;4953981;29;20483;-48
2023/03/14 00:34:11;;;;;;;1.65;0.68;;;11.30;99.90;;;;;;4953713;29;20023;-52
2023/03/14 00:36:37;;;;;;;2.13;1.08;;;11.30;99.90;;;;;;4953727;29;20086;-51
2023/03/14 00:39:03;;;;;;;0.98;0.80;;;11.30;99.90;;;;;;4953645;29;20034;-50
2023/03/14 00:41:28;;;;;;;2.20;1.20;;;11.30;99.90;;;;;;4953861;29;20031;-49
2023/03/14 00:43:54;;;;;;;3.83;1.20;;;11.30;99.90;;;;;;4953410;29;20408;-49
2023/03/14 00:46:19;;;;;;;4.18;2.08;;;11.30;99.90;;;;;;4952807;28;20034;-51
2023/03/14 00:48:46;;;;;;;2.13;1.33;;;11.30;99.90;;;;;;4953636;29;20019;-52
2023/03/14 00:51:14;;;;;;;17.98;1.73;;;11.30;99.90;;;;;;4953619;29;20135;-52
2023/03/14 00:53:40;;;;;;;0.82;0.82;;;11.30;99.90;;;;;;4954061;28;20094;-47
2023/03/14 00:56:09;;;;;;;1.33;1.23;;;11.30;99.90;;;;;;4953318;28;20158;-53
2023/03/14 00:58:35;;;;;;;4.28;1.33;;;11.30;99.90;;;;;;4953509;29;20161;-51
2023/03/14 01:01:06;;;;;;;1.95;0.82;;;11.30;99.90;;;;;;4953564;29;20067;-49
2023/03/14 01:03:31;;;;;;;1.25;0.70;;;11.20;99.90;;;;;;4953513;29;20392;-54
2023/03/14 01:06:07;;;;;;;0.98;0.77;;;11.20;99.90;;;;;;4953144;28;20074;-52
2023/03/14 01:08:32;;;;;;;3.83;1.40;;;11.20;99.90;;;;;;4953459;29;20024;-52
2023/03/14 01:10:58;;;;;;;2.35;1.52;;;11.20;99.90;;;;;;4953356;29;20102;-52
2023/03/14 01:13:23;;;;;;;1.20;0.85;;;11.10;99.90;;;;;;4953548;29;20031;-44
2023/03/14 01:15:49;;;;;;;5.25;1.67;;;11.20;99.90;;;;;;4953498;29;20031;-49
2023/03/14 01:18:14;;;;;;;2.13;0.80;;;11.20;99.90;;;;;;4953175;28;20036;-47
2023/03/14 01:20:40;;;;;;;3.10;0.85;;;11.20;99.90;;;;;;4953177;29;20035;-47
2023/03/14 01:23:05;;;;;;;3.53;1.10;;;11.20;99.90;;;;;;4953666;29;20255;-49
2023/03/14 01:25:31;;;;;;;2.38;1.00;;;11.20;99.90;;;;;;4953344;29;20027;-51
2023/03/14 01:27:56;;;;;;;3.80;1.40;;;11.20;99.90;;;;;;4953398;29;20019;-49
2023/03/14 01:30:22;;;;;;;3.78;1.10;;;11.10;99.90;;;;;;4955569;28;20027;-51
2023/03/14 01:32:47;;;;;;;2.70;1.25;;;11.10;99.90;;;;;;4957748;29;20024;-48
2023/03/14 01:35:13;;;;;;;3.70;1.42;;;11.10;99.90;;;;;;4957216;29;20032;-51
2023/03/14 01:37:38;;;;;;;5.75;1.13;;;11.10;99.90;;;;;;4956863;29;20090;-48
2023/03/14 01:40:05;;;;;;;1.55;1.00;;;11.10;99.90;;;;;;4956852;29;20439;-50
2023/03/14 01:42:31;;;;;;;1.42;0.75;;;11.10;99.90;;;;;;4956907;29;20105;-49
2023/03/14 01:44:59;;;;;;;4.03;1.15;;;11.10;99.90;;;;;;4956878;29;20067;-48
2023/03/14 01:47:25;;;;;;;4.40;1.00;;;11.10;99.90;;;;;;4956549;29;20490;-48
2023/03/14 01:50:01;;;;;;;5.53;1.10;;;11.10;99.90;;;;;;4956519;29;20335;-52
2023/03/14 01:52:36;;;;;;;3.20;1.27;;;11.10;99.90;;;;;;4956901;29;20074;-49
2023/03/14 01:55:15;;;;;;;3.72;1.52;;;11.10;99.90;;;;;;4956583;29;20074;-55
2023/03/14 01:57:58;;;;;;;4.30;1.17;;;11.10;99.90;;;;;;4956579;29;20030;-49
2023/03/14 02:00:24;;;;;;;4.70;1.25;;;11.10;99.90;;;;;;4956704;29;20027;-54
2023/03/14 02:02:55;;;;;;;7.90;0.90;;;11.10;99.90;;;;;;4956552;29;20028;-52
2023/03/14 02:05:24;;;;;;;2.45;1.00;;;11.10;99.90;;;;;;4956379;29;20448;-51
2023/03/14 02:07:56;;;;;;;2.67;1.23;;;11.20;99.90;;;;;;4956098;29;20360;-50
2023/03/14 02:10:29;;;;;;;6.07;1.23;;;11.20;99.90;;;;;;4956293;29;20027;-51
2023/03/14 02:12:56;;;;;;;1.92;1.15;;;11.20;99.90;;;;;;4956195;29;20023;-55
2023/03/14 02:15:23;;;;;;;1.65;1.00;;;11.10;99.90;;;;;;4956030;29;20023;-50
2023/03/14 02:17:48;;;;;;;4.10;1.50;;;11.10;99.90;;;;;;4955687;28;20041;-54
2023/03/14 02:20:30;;;;;;;8.57;1.27;;;11.20;99.90;;;;;;4955639;29;20494;-51
2023/03/14 02:22:56;;;;;;;2.20;1.00;;;11.20;99.90;;;;;;4955961;29;20030;-48
2023/03/14 02:25:25;;;;;;;4.50;1.20;;;11.10;99.90;;;;;;4955664;29;20027;-48
2023/03/14 02:27:51;;;;;;;7.78;1.75;;;11.10;99.90;;;;;;4955441;29;20281;-49
2023/03/14 02:30:23;;;;;;;4.80;1.40;;;11.10;99.90;;;;;;4955419;28;20063;-52
2023/03/14 02:32:54;;;;;;;2.90;1.58;;;11.10;99.90;;;;;;4955907;29;20511;-49
2023/03/14 02:35:23;;;;;;;5.65;1.10;;;11.00;99.90;;;;;;4955354;29;20027;-48
2023/03/14 02:38:00;;;;;;;1.77;1.52;;;11.00;99.90;;;;;;4955344;28;20070;-50
2023/03/14 02:40:26;;;;;;;2.75;1.17;;;10.90;99.90;;;;;;4955213;28;20034;-49
2023/03/14 02:42:51;;;;;;;3.70;1.35;;;10.90;99.90;;;;;;4955317;29;20395;-55
2023/03/14 02:45:16;;;;;;;4.70;1.23;;;10.90;99.90;;;;;;4955318;28;20027;-49
2023/03/14 02:47:47;;;;;;;6.15;1.50;;;10.90;99.90;;;;;;4955294;29;20031;-53
2023/03/14 02:50:24;;;;;;;5.10;1.17;;;10.90;99.90;;;;;;4955181;29;20024;-53
2023/03/14 02:52:50;;;;;;;4.57;1.48;;;10.80;99.90;;;;;;4955436;29;20027;-54
2023/03/14 02:55:24;;;;;;;5.97;1.15;;;10.80;99.90;;;;;;4955174;29;20110;-52
2023/03/14 02:57:50;;;;;;;11.65;1.98;;;10.70;99.90;;;;;;4953776;29;20145;-50
2023/03/14 03:00:16;;;;;;;7.03;2.03;;;10.80;99.90;;;;;;4954968;29;20031;-50
2023/03/14 03:02:41;;;;;;;3.72;2.08;;;10.70;99.90;;;;;;4955132;29;20562;-49
2023/03/14 03:05:07;;;;;;;2.40;1.25;;;10.70;99.90;;;;;;4954903;29;20070;-51
2023/03/14 03:07:33;;;;;;;1.50;0.98;;;10.70;99.90;;;;;;4954742;28;20151;-49
2023/03/14 03:09:58;;;;;;;4.43;1.20;;;10.70;99.90;;;;;;4954799;29;20038;-54
2023/03/14 03:12:24;;;;;;;10.23;1.70;;;10.70;99.90;;;;;;4954966;29;20034;-50
2023/03/14 03:14:49;;;;;;;3.65;1.38;;;10.60;99.90;;;;;;4955011;29;20134;-51
2023/03/14 03:17:15;;;;;;;5.78;1.42;;;10.70;99.90;;;;;;4954505;29;20533;-52
2023/03/14 03:19:40;;;;;;;8.02;1.70;;;10.70;99.90;;;;;;4953410;29;20031;-54
2023/03/14 03:22:06;;;;;;;5.13;1.00;;;10.80;99.90;;;;;;4956284;29;20027;-50
2023/03/14 03:24:32;;;;;;;2.80;1.45;;;10.70;99.90;;;;;;4957171;29;20049;-49
2023/03/14 03:26:57;;;;;;;7.80;1.67;;;10.80;99.90;;;;;;4955173;29;20062;-50
2023/03/14 03:29:23;;;;;;;3.42;1.00;;;10.80;99.90;;;;;;4954578;28;20027;-53
2023/03/14 03:31:48;;;;;;;4.13;1.00;;;10.80;99.90;;;;;;4954648;29;20027;-48
2023/03/14 03:34:14;;;;;;;5.40;1.23;;;10.80;99.90;;;;;;4954773;28;20038;-47
2023/03/14 03:36:40;;;;;;;2.90;1.23;;;10.80;99.90;;;;;;4954277;29;20065;-49
2023/03/14 03:39:06;;;;;;;3.25;1.02;;;10.80;99.90;;;;;;4953256;29;20030;-53
2023/03/14 03:41:32;;;;;;;4.68;1.25;;;10.80;99.90;;;;;;4954651;29;20031;-53
2023/03/14 03:43:58;;;;;;;7.72;1.40;;;10.70;99.90;;;;;;4954596;29;20073;-52
2023/03/14 03:46:23;;;;;;;4.70;1.17;;;10.80;99.90;;;;;;4954352;29;20062;-49
2023/03/14 03:48:54;;;;;;;3.45;1.10;;;10.80;99.90;;;;;;4954478;29;20027;-50
2023/03/14 03:51:20;;;;;;;4.35;1.67;;;10.70;99.90;;;;;;4954433;29;20031;-52
2023/03/14 03:53:45;;;;;;;5.55;1.73;;;10.70;99.90;;;;;;4953972;28;20076;-50
2023/03/14 03:56:11;;;;;;;5.20;1.02;;;10.80;99.90;;;;;;4954471;28;20118;-49
2023/03/14 03:58:38;;;;;;;4.53;1.30;;;10.80;99.90;;;;;;4954291;28;20373;-52
2023/03/14 04:01:05;;;;;;;2.42;1.00;;;10.90;99.90;;;;;;4954269;29;20042;-49
2023/03/14 04:03:30;;;;;;;4.00;1.27;;;10.90;99.90;;;;;;4954157;29;20050;-54
2023/03/14 04:06:07;;;;;;;7.80;1.50;;;10.80;99.90;;;;;;4953895;29;20065;-49
2023/03/14 04:08:33;;;;;;;5.30;1.30;;;10.80;99.90;;;;;;4954195;29;20106;-52
2023/03/14 04:11:00;;;;;;;5.13;1.17;;;10.90;99.90;;;;;;4954300;29;20098;-53
2023/03/14 04:13:27;;;;;;;5.13;1.67;;;10.80;99.90;;;;;;4954104;29;20020;-49
2023/03/14 04:15:53;;;;;;;4.68;1.25;;;10.80;99.90;;;;;;4952309;29;20038;-49
2023/03/14 04:18:19;;;;;;;5.00;1.50;;;10.90;99.90;;;;;;4954022;29;20051;-53
2023/03/14 04:20:45;;;;;;;7.70;2.00;;;10.90;99.90;;;;;;4954165;29;20027;-48
2023/03/14 04:23:10;;;;;;;3.47;1.08;;;10.90;99.90;;;;;;4954093;28;20034;-51
2023/03/14 04:25:36;;;;;;;3.33;1.35;;;10.90;99.90;;;;;;4954258;29;20082;-52
2023/03/14 04:28:03;;;;;;;3.60;1.63;;;11.00;99.90;;;;;;4953584;29;20391;-53
2023/03/14 04:30:29;;;;;;;3.35;1.08;;;11.00;99.90;;;;;;4953967;29;20080;-48
2023/03/14 04:32:55;;;;;;;5.78;1.08;;;11.00;99.90;;;;;;4953917;28;20024;-53
2023/03/14 04:35:20;;;;;;;2.28;1.23;;;11.00;99.90;;;;;;4953829;29;20032;-52
2023/03/14 04:37:48;;;;;;;5.63;1.88;;;11.10;99.90;;;;;;4953930;29;20027;-51
2023/03/14 04:40:15;;;;;;;5.05;0.93;;;11.10;99.90;;;;;;4963265;28;20059;-52
2023/03/14 04:42:40;;;;;;;7.72;1.52;;;11.00;99.90;;;;;;4954203;29;20035;-52
2023/03/14 04:45:07;;;;;;;1.48;1.00;;;11.00;99.90;;;;;;4955049;28;20031;-51
2023/03/14 04:47:32;;;;;;;11.52;1.63;;;11.00;99.90;;;;;;4953616;29;20023;-48
2023/03/14 04:49:58;;;;;;;5.45;1.30;;;11.00;99.90;;;;;;4953585;29;20495;-55
2023/03/14 04:52:23;;;;;;;10.88;1.10;;;11.00;99.90;;;;;;4953592;29;20448;-48
2023/03/14 04:54:49;;;;;;;3.53;1.17;;;11.10;99.90;;;;;;4953561;29;20451;-48
2023/03/14 04:57:14;;;;;;;7.00;1.70;;;11.00;99.90;;;;;;4953214;29;20069;-51
2023/03/14 04:59:40;;;;;;;10.05;1.30;;;11.10;99.90;;;;;;4953385;28;20042;-49
2023/03/14 05:02:06;;;;;;;9.65;2.50;;;11.00;99.90;;;;;;4953452;29;20440;-52
2023/03/14 05:04:33;;;;;;;2.78;1.48;;;11.10;99.90;;;;;;4952552;28;20027;-50
2023/03/14 05:06:59;;;;;;;4.70;1.13;;;11.10;99.90;;;;;;4953281;29;20494;-53
2023/03/14 05:09:24;;;;;;;3.55;1.08;;;11.10;99.90;;;;;;4953612;29;20026;-49
2023/03/14 05:11:50;;;;;;;4.30;0.93;;;11.10;99.90;;;;;;4953364;28;20077;-49
2023/03/14 05:14:16;;;;;;;2.90;0.80;;;11.10;99.90;;;;;;4953506;29;20475;-50
2023/03/14 05:16:41;;;;;;;3.70;1.20;;;11.10;99.90;;;;;;4953492;29;20072;-53
2023/03/14 05:19:07;;;;;;;3.60;1.27;;;11.10;99.90;;;;;;4953276;28;20399;-49
2023/03/14 05:21:32;;;;;;;5.05;0.95;;;11.10;99.90;;;;;;4953363;28;20049;-49
2023/03/14 05:23:58;;;;;;;3.33;1.00;;;11.00;99.90;;;;;;4953515;29;20034;-49
2023/03/14 05:26:23;;;;;;;3.85;1.02;;;11.00;99.90;;;;;;4952713;29;20031;-55
2023/03/14 05:28:49;;;;;;;2.70;0.90;;;11.00;99.90;;;;;;4953129;29;20035;-53
2023/03/14 05:31:14;;;;;;;6.35;1.10;;;11.10;99.90;;;;;;4953456;29;20097;-48
2023/03/14 05:33:40;;;;;;;4.10;1.33;;;11.10;99.90;;;;;;4953163;28;20433;-48
2023/03/14 05:36:06;;;;;;;3.08;1.17;;;11.10;99.90;;;;;;4953623;29;20032;-52
2023/03/14 05:38:32;;;;;;;2.83;0.90;;;11.10;99.90;;;;;;4952954;28;20447;-53
2023/03/14 05:40:57;;;;;;;4.10;1.13;;;11.10;99.90;;;;;;4953014;29;20106;-50
2023/03/14 05:43:23;;;;;;;1.95;0.77;;;11.20;99.90;;;;;;4953113;29;20031;-49
2023/03/14 05:45:48;;;;;;;2.38;1.00;;;11.10;99.90;;;;;;4952880;28;20078;-52
2023/03/14 05:48:15;;;;;;;4.70;1.23;;;11.20;99.90;;;;;;4952987;29;20074;-54
2023/03/14 05:50:40;;;;;;;5.63;1.58;;;11.20;99.90;;;;;;4952805;29;20115;-55
2023/03/14 05:53:06;;;;;;;4.00;1.45;;;11.20;99.90;;;;;;4953261;28;20062;-48
2023/03/14 05:55:31;;;;;;;4.85;1.10;;;11.20;99.90;;;;;;4953163;29;20523;-51
2023/03/14 05:57:57;;;;;;;7.60;1.45;;;11.20;99.90;;;;;;4953049;29;20023;-51
2023/03/14 06:00:22;;;;;;;7.55;1.23;;;11.20;99.90;;;;;;4952858;28;20039;-50
2023/03/14 06:02:48;;;;;;;4.93;1.20;;;11.20;99.90;;;;;;4952962;28;20031;-50
2023/03/14 06:05:13;;;;;;;3.13;1.00;;;11.20;99.90;;;;;;4952867;29;20024;-50
2023/03/14 06:07:39;;;;;;;4.18;1.05;;;11.20;99.90;;;;;;4952728;29;20114;-52
2023/03/14 06:10:05;;;;;;;3.97;1.00;;;11.20;99.90;;;;;;4951477;29;20035;-53
2023/03/14 06:12:31;;;;;;;5.30;0.80;;;11.20;99.90;;;;;;4953024;29;20015;-50
2023/03/14 06:14:56;;;;;;;2.28;0.77;;;11.20;99.90;;;;;;4953108;29;20107;-50
2023/03/14 06:17:22;;;;;;;5.35;0.70;;;11.20;99.90;;;;;;4983773;23;20079;-51
2023/03/14 06:19:47;;;;;;;4.07;0.80;;;11.20;99.90;;;;;;4996439;28;20030;-50
2023/03/14 06:22:13;;;;;;;1.35;1.05;;;11.20;99.90;;;;;;4995849;28;20022;-51
2023/03/14 06:24:39;;;;;;;1.85;0.80;;;11.20;99.90;;;;;;4997557;28;20114;-50
2023/03/14 06:27:04;;;;;;;2.75;0.88;;;11.20;99.90;;;;;;4995436;28;20022;-54
2023/03/14 06:29:30;;;;;;;3.60;0.80;;;11.20;99.90;;;;;;4996920;28;20029;-58
2023/03/14 06:31:56;;;;;;;3.60;0.85;;;11.20;99.90;;;;;;4995954;28;20126;-55
2023/03/14 06:34:21;;;;;;;1.17;0.70;;;11.20;99.90;;;;;;4997223;28;20065;-50
2023/03/14 06:36:47;;;;;;;5.50;1.17;;;11.20;99.90;;;;;;4996937;28;20091;-50
2023/03/14 06:39:13;;;;;;;3.78;1.77;;;11.20;99.90;;;;;;4997387;28;20086;-55
2023/03/14 06:41:38;;;;;;;1.65;0.70;;;11.20;99.90;;;;;;4999098;28;20489;-57
2023/03/14 06:44:04;;;;;;;3.22;1.05;;;11.20;99.90;;;;;;4999169;28;20026;-54
2023/03/14 06:46:30;;;;;;;0.63;0.52;;;11.20;99.90;;;;;;4999949;28;20036;-55
2023/03/14 06:48:55;;;;;;;2.50;0.73;;;11.20;99.90;;;;;;4999975;28;20045;-55
2023/03/14 06:51:21;;;;;;;3.47;1.00;;;11.20;99.90;;;;;;4998434;28;20030;-50
2023/03/14 06:53:47;;;;;;;3.47;0.98;;;11.20;99.90;;;;;;4997501;28;20031;-53
2023/03/14 06:56:12;;;;;;;1.88;1.05;;;11.20;99.90;;;;;;4997002;28;20451;-53
2023/03/14 06:58:37;;;;;;;1.92;0.98;;;11.20;99.90;;;;;;4996787;28;20517;-51
2023/03/14 07:01:03;;;;;;;3.30;1.00;;;11.20;99.90;;;;;;4995794;28;20035;-52
2023/03/14 07:03:29;;;;;;;3.67;1.17;;;11.20;99.90;;;;;;4995359;28;20053;-54
2023/03/14 07:05:54;;;;;;;4.00;1.23;;;11.20;99.90;;;;;;4995059;28;20087;-53
2023/03/14 07:08:20;;;;;;;2.60;0.70;;;11.20;99.90;;;;;;4996417;28;20053;-54
2023/03/14 07:10:45;;;;;;;3.63;1.05;;;11.20;99.90;;;;;;4995376;28;20033;-54
2023/03/14 07:13:11;;;;;;;2.08;0.90;;;11.20;99.90;;;;;;4996564;28;20023;-51
2023/03/14 07:15:36;;;;;;;1.17;1.00;;;11.20;99.90;;;;;;4997716;28;20033;-50
2023/03/14 07:18:02;;;;;;;3.60;0.90;;;11.20;99.90;;;;;;4996232;28;20045;-50
2023/03/14 07:20:29;;;;;;;1.77;0.90;;;11.20;99.90;;;;;;4997201;28;20030;-54
2023/03/14 07:22:55;;;;;;;4.07;1.77;;;11.20;99.90;;;;;;4997580;28;20116;-53
2023/03/14 07:25:20;;;;;;;2.95;0.90;;;11.20;99.90;;;;;;4997125;28;20482;-51
2023/03/14 07:27:47;;;;;;;3.53;0.82;;;11.30;99.90;;;;;;4996202;28;20079;-53
2023/03/14 07:30:13;;;;;;;4.68;1.77;;;11.30;99.90;;;;;;4997067;28;20089;-50
2023/03/14 07:32:39;;;;;;;1.73;0.80;;;11.20;99.90;;;;;;4996859;28;20018;-49
2023/03/14 07:35:05;;;;;;;3.28;1.38;;;11.20;99.90;;;;;;4997377;28;20038;-54
2023/03/14 07:37:31;;;;;;;2.92;0.70;;;11.20;99.90;;;;;;4996985;28;20031;-50
2023/03/14 07:39:56;;;;;;;2.33;0.70;;;11.20;99.90;;;;;;4997131;28;20026;-54
2023/03/14 07:42:22;;;;;;;2.05;0.82;;;11.30;99.90;;;;;;4995515;28;20037;-50
2023/03/14 07:44:47;;;;;;;3.95;0.75;;;11.30;99.90;;;;;;4997523;28;20057;-49
2023/03/14 07:47:13;;;;;;;3.60;1.20;;;11.30;99.90;;;;;;4990310;28;20027;-53
2023/03/14 07:49:38;;;;;;;4.10;0.98;;;11.30;99.90;;;;;;4989367;28;20034;-50
2023/03/14 07:52:04;;;;;;;0.90;0.60;;;11.30;99.90;;;;;;4993189;28;20045;-48
2023/03/14 07:54:29;;;;;;;1.13;0.65;;;11.40;99.90;;;;;;4993509;28;20113;-48
2023/03/14 07:56:55;;;;;;;4.97;0.60;;;11.30;99.90;;;;;;4993023;28;20521;-54
2023/03/14 07:59:21;;;;;;;3.38;0.70;;;11.30;99.90;;;;;;4992994;28;20030;-49
2023/03/14 08:01:46;;;;;;;2.35;0.60;;;11.30;99.90;;;;;;4992351;28;20043;-48
2023/03/14 08:04:12;;;;;;;4.50;0.90;;;11.30;99.90;;;;;;4991634;28;20038;-50
2023/03/14 08:06:37;;;;;;;1.58;0.80;;;11.30;99.90;;;;;;4992957;28;20490;-55
2023/03/14 08:09:04;;;;;;;3.15;0.88;;;11.30;99.90;;;;;;4992668;28;20033;-50
2023/03/14 08:11:29;;;;;;;4.85;1.58;;;11.30;99.90;;;;;;4992991;28;20172;-51
2023/03/14 08:13:55;;;;;;;2.03;0.50;;;11.40;99.90;;;;;;4993238;28;20146;-51
2023/03/14 08:16:21;;;;;;;3.78;0.77;;;11.40;99.90;;;;;;4992529;28;20100;-54
2023/03/14 08:18:46;;;;;;;1.77;0.77;;;11.50;99.90;;;;;;4992510;28;20502;-50
2023/03/14 08:21:12;;;;;;;3.38;0.73;;;11.60;99.90;;;;;;4992530;28;20445;-53
2023/03/14 08:23:38;;;;;;;2.67;0.77;;;11.70;99.90;;;;;;4992373;28;20030;-56
2023/03/14 08:26:04;;;;;;;1.02;0.70;;;11.70;99.90;;;;;;4992385;28;20129;-50
2023/03/14 08:28:32;;;;;;;2.65;0.65;;;11.70;99.90;;;;;;4992459;28;20037;-52
2023/03/14 08:30:57;;;;;;;4.55;0.82;;;11.70;99.90;;;;;;4992782;28;20486;-55
2023/03/14 08:33:24;;;;;;;2.78;0.85;;;11.80;99.90;;;;;;4992354;28;20109;-54
2023/03/14 08:35:52;;;;;;;0.40;0.40;;;11.80;99.90;;;;;;4991572;28;20383;-55
2023/03/14 08:38:18;;;;;;;1.00;0.60;;;11.90;99.90;;;;;;4990502;28;20030;-52
2023/03/14 08:40:43;;;;;;;2.58;0.75;;;12.00;99.90;;;;;;4992067;28;20056;-52
2023/03/14 08:43:09;;;;;;;1.15;0.52;;;12.00;99.90;;;;;;4991918;28;20101;-54
2023/03/14 08:45:34;;;;;;;0.90;0.65;;;12.10;99.90;;;;;;4992402;28;20113;-52
2023/03/14 08:48:00;;;;;;;1.42;0.82;;;12.20;99.90;;;;;;4991224;28;20049;-51
2023/03/14 08:50:25;;;;;;;0.88;0.40;;;12.40;99.90;;;;;;4992067;28;20033;-54
2023/03/14 08:52:52;;;;;;;3.20;0.95;;;12.50;99.90;;;;;;4992382;28;20037;-55
2023/03/14 08:55:17;;;;;;;2.22;0.60;;;12.50;99.90;;;;;;4991922;28;20105;-54
2023/03/14 08:57:44;;;;;;;1.48;0.82;;;;;;;;;;4992193;28;20209;-54
2023/03/14 09:00:14;;;;;;;3.83;0.80;;;12.60;99.90;;;;;;4992080;28;20062;-55
2023/03/14 09:02:43;;;;;;;0.90;0.57;;;12.60;99.90;;;;;;4992362;28;20023;-53
2023/03/14 09:05:10;;;;;;;0.77;0.38;;;12.60;99.90;;;;;;4991703;28;20041;-48
2023/03/14 09:07:36;;;;;;;0.57;0.40;;;;;;;;;;4992680;28;20058;-52
2023/03/14 09:10:02;;;;;;;0.52;0.40;;;;;;;;;;4992089;28;20049;-51
2023/03/14 09:12:28;;;;;;;1.67;0.50;;;;;;;;;;4991945;28;20030;-53
2023/03/14 09:14:54;;;;;;;2.72;0.50;;;;;;;;;;4992394;28;20073;-49
2023/03/14 09:17:20;;;;;;;0.75;0.50;;;;;;;;;;4973681;28;20027;-48
2023/03/14 09:19:45;;;;;;;0.57;0.40;;;;;;;;;;4994442;28;20210;-45
2023/03/14 09:22:11;;;;;;;3.50;0.82;;;;;;;;;;4996709;28;20026;-48
2023/03/14 09:24:37;;;;;;;0.50;0.50;;;;;;;;;;4996516;28;20018;-49
2023/03/14 09:27:03;;;;;;;2.58;0.93;;;;;;;;;;5012128;28;20026;-51
2023/03/14 09:29:29;;;;;;;0.95;0.50;;;;;;;;;;4993543;28;20026;-49
2023/03/14 09:31:56;;;;;;;0.70;0.50;;;;;;;;;;4993337;28;20026;-51
2023/03/14 09:34:22;;;;;;;1.35;0.70;;;;;;;;;;4992351;28;20078;-49
2023/03/14 09:36:48;;;;;;;2.95;0.80;;;13.60;99.90;;;;;;5010466;28;20038;-51
2023/03/14 09:39:14;;;;;;;3.03;1.15;;;13.40;99.90;;;;;;5017385;28;20034;-52
2023/03/14 09:41:41;;;;;;;0.30;0.30;;;;;;;;;;5015888;28;20026;-55
2023/03/14 09:44:10;;;;;;;1.02;0.60;;;13.50;99.90;;;;;;5002050;28;20268;-52
2023/03/14 09:46:37;;;;;;;0.70;0.50;;;13.40;99.90;;;;;;5008605;28;20034;-57
2023/03/14 09:49:11;;;;;;;1.60;0.90;;;13.40;99.90;;;;;;4999989;28;20034;-54
2023/03/14 09:51:37;;;;;;;0.43;0.40;;;13.40;99.90;;;;;;5001391;28;20075;-55
2023/03/14 09:54:05;;;;;;;0.63;0.40;;;13.50;99.90;;;;;;5018597;28;20518;-54
2023/03/14 09:56:33;;;;;;;1.33;0.90;;;13.40;99.90;;;;;;5015423;28;20030;-52
2023/03/14 09:59:02;;;;;;;2.42;0.55;;;13.30;99.90;;;;;;5015430;28;20505;-57
2023/03/14 10:01:32;;;;;;;1.48;0.43;;;;;;;;;;4999304;28;20501;-55
2023/03/14 10:04:04;;;;;;;4.20;1.35;;;;;;;;;;4993178;28;20034;-59
2023/03/14 10:06:31;;;;;;;17.20;11.32;;;;;;;;;;4996010;28;20088;-53
2023/03/14 10:08:57;;;;;;;1.50;0.80;;;;;;;;;;4996501;28;20026;-51
2023/03/14 10:11:23;;;;;;;1.00;0.45;;;12.50;99.90;;;;;;5000515;28;20037;-60
2023/03/14 10:14:06;;;;;;;0.32;0.32;;;12.40;99.90;;;;;;4995775;28;20022;-58
2023/03/14 10:16:34;;;;;;;0.77;0.40;;;12.40;99.90;;;;;;4997867;28;20105;-52
2023/03/14 10:19:05;;;;;;;0.40;0.40;;;12.40;99.90;;;;;;4996225;28;20035;-54
2023/03/14 10:21:49;;;;;;;1.08;0.68;;;12.40;99.90;;;;;;4998615;28;20045;-53
2023/03/14 10:24:35;;;;;;;0.43;0.43;;;12.40;99.90;;;;;;4996599;28;20045;-55
2023/03/14 10:27:08;;;;;;;1.30;0.50;;;12.40;99.90;;;;;;4997499;28;20458;-54
2023/03/14 10:29:50;;;;;;;1.83;0.60;;;12.30;99.90;;;;;;4995914;28;20081;-56
2023/03/14 10:32:20;;;;;;;1.48;0.40;;;12.30;99.90;;;;;;4995848;28;20113;-54
2023/03/14 10:35:15;;;;;;;2.17;0.40;;;12.30;99.90;;;;;;4994060;28;20026;-53
2023/03/14 10:38:01;;;;;;;1.08;0.70;;;12.20;99.90;;;;;;5000446;28;20022;-58
2023/03/14 10:40:49;;;;;;;0.73;0.45;;;12.20;99.90;;;;;;5001486;28;20065;-56
2023/03/14 10:43:18;;;;;;;0.73;0.40;;;;;;;;;;5001038;28;20035;-52
2023/03/14 10:45:51;;;;;;;1.38;1.27;;;12.00;99.90;;;;;;5001334;28;20026;-53
2023/03/14 10:48:35;;;;;;;0.30;0.30;;;12.00;99.90;;;;;;5000325;28;20026;-56
2023/03/14 10:51:19;;;;;;;1.15;0.57;;;12.00;99.90;;;;;;5001242;28;20101;-57
2023/03/14 10:54:08;;;;;;;1.08;0.50;;;12.10;99.90;;;;;;4997489;28;20475;-52
2023/03/14 10:56:36;;;;;;;2.65;0.40;;;12.10;99.90;;;;;;5000006;28;20276;-53
2023/03/14 10:59:03;;;;;;;0.40;0.40;;;12.20;99.90;;;;;;5000770;28;20022;-56
2023/03/14 11:01:38;;;;;;;0.50;0.50;;;12.10;99.90;;;;;;5000457;28;20037;-52
2023/03/14 11:04:13;;;;;;;0.35;0.35;;;12.30;99.90;;;;;;4995300;28;20077;-56
2023/03/14 11:06:41;;;;;;;;;;;12.20;99.90;;;;;;4981676;28;20038;-51
2023/03/14 11:09:18;;;;;;;0.50;0.50;;;12.30;99.90;;;;;;4989107;28;19964;-53
2023/03/14 11:11:47;;;;;;;0.95;0.30;;;12.30;99.90;;;;;;4994057;28;20030;-55
2023/03/14 11:14:38;;;;;;;0.50;0.28;;;12.30;99.90;;;;;;4992777;28;20050;-54
2023/03/14 11:17:30;;;;;;;0.38;0.38;;;12.20;99.90;;;;;;4992536;28;20080;-54
2023/03/14 11:20:05;;;;;;;0.63;0.35;;;12.20;99.90;;;;;;4984415;28;20514;-56
2023/03/14 11:22:46;;;;;;;0.60;0.60;;;12.20;99.90;;;;;;4992727;28;20394;-54
2023/03/14 11:25:24;;;;;;;1.33;0.75;;;12.30;99.90;;;;;;4992005;28;20421;-49
2023/03/14 11:28:08;;;;;;;6.95;3.80;;;12.30;99.90;;;;;;4993305;28;20022;-55
2023/03/14 11:31:07;;;;;;;3.15;2.05;;;12.30;99.90;;;;;;4992971;28;20022;-54
2023/03/14 11:33:38;;;;;;;0.40;0.40;;;12.30;99.90;;;;;;4991931;28;20022;-54
2023/03/14 11:36:09;;;;;;;0.65;0.47;;;12.30;99.90;;;;;;4992823;28;20101;-55
2023/03/14 11:38:45;;;;;;;0.80;0.40;;;12.30;99.90;;;;;;4988549;28;20033;-50
2023/03/14 11:41:19;;;;;;;0.65;0.40;;;12.30;99.90;;;;;;4980012;28;20022;-58
2023/03/14 11:43:48;;;;;;;1.88;0.50;;;12.30;99.90;;;;;;4992704;28;20030;-52
2023/03/14 11:46:29;;;;;;;0.47;0.47;;;12.30;99.90;;;;;;4990584;28;20169;-52
2023/03/14 11:49:21;;;;;;;0.47;0.30;;;12.40;99.90;;;;;;4989517;28;20113;-51
2023/03/14 11:51:58;;;;;;;1.20;0.80;;;12.40;99.90;;;;;;4993350;28;20114;-51
2023/03/14 11:54:49;;;;;;;0.38;0.38;;;12.50;99.90;;;;;;4993482;28;20395;-51
2023/03/14 11:57:18;;;;;;;3.53;0.57;;;12.50;99.90;;;;;;4992984;28;20084;-49
2023/03/14 12:00:08;;;;;;;0.70;0.38;;;12.50;99.90;;;;;;4994132;28;20038;-55
2023/03/14 12:02:48;;;;;;;0.30;0.30;;;12.30;99.90;;;;;;4993105;28;20030;-53
2023/03/14 12:05:27;;;;;;;0.70;0.30;;;12.10;99.90;;;;;;4992547;28;20046;-59
2023/03/14 12:08:08;;;;;;;0.20;0.20;;;12.00;99.90;;;;;;4991801;28;20465;-55
2023/03/14 12:10:48;;;;;;;0.20;0.20;;;12.00;99.90;;;;;;4993474;28;20082;-51
2023/03/14 12:13:15;;;;;;;0.28;0.28;;;11.90;99.90;;;;;;5003932;28;20414;-59
2023/03/14 12:16:00;;;;;;;0.20;0.20;;;11.80;99.90;;;;;;5002119;28;20030;-58
2023/03/14 12:18:29;;;;;;;0.20;0.13;;;11.70;99.90;;;;;;5008073;23;20047;-53
2023/03/14 12:20:59;;;;;;;0.22;0.22;;;11.70;99.90;;;;;;4971536;28;20054;-54
2023/03/14 12:23:26;;;;;;;5.07;0.20;;;11.70;99.90;;;;;;4973311;28;20023;-51
2023/03/14 12:26:18;;;;;;;0.20;0.20;;;11.70;99.90;;;;;;4973002;28;20059;-55
2023/03/14 12:28:50;;;;;;;0.20;0.20;;;11.70;99.90;;;;;;4972693;28;20027;-50
2023/03/14 12:31:31;;;;;;;0.20;0.20;;;11.70;99.90;;;;;;4976750;28;20041;-54
2023/03/14 12:34:03;;;;;;;0.20;0.20;;;11.70;99.90;;;;;;4992309;28;20490;-52
2023/03/14 12:37:15;;;;;;;0.30;0.30;;;11.70;99.90;;;;;;4990900;28;20548;-49
2023/03/14 12:40:03;;;;;;;2.53;0.30;;;11.80;99.90;;;;;;4975127;28;20058;-50
2023/03/14 12:42:29;;;;;;;0.55;0.30;;;11.80;99.90;;;;;;4972217;28;20026;-49
2023/03/14 12:45:13;;;;;;;0.40;0.40;;;11.90;99.90;;;;;;4971225;28;20134;-48
2023/03/14 12:47:39;;;;;;;0.20;0.20;;;11.80;99.90;;;;;;4972444;28;20034;-51
2023/03/14 12:50:15;;;;;;;0.20;0.20;;;11.80;99.90;;;;;;4972437;28;20399;-49
2023/03/14 12:53:07;;;;;;;0.20;0.20;;;11.70;99.90;;;;;;4971106;28;20446;-50
2023/03/14 12:55:55;;;;;;;1.77;0.30;;;11.70;99.90;;;;;;4970853;28;20467;-48
2023/03/14 12:58:35;;;;;;;0.20;0.20;;;11.80;99.90;;;;;;4953291;28;20031;-52
2023/03/14 13:01:04;;;;;;;0.75;0.25;;;11.70;99.90;;;;;;4953666;28;20121;-53